createdAt,value
2022-10-09T00:02:04.989Z,25.22
2022-10-09T00:04:34.421Z,25.22
2022-10-09T00:07:06.072Z,25.22
2022-10-09T00:09:36.832Z,25.21
2022-10-09T00:12:06.630Z,25.20
2022-10-09T00:14:35.631Z,25.20
2022-10-09T00:17:07.154Z,25.20
2022-10-09T00:19:37.183Z,25.20
2022-10-09T00:22:06.416Z,25.20
2022-10-09T00:24:38.830Z,25.21
2022-10-09T00:27:10.053Z,25.22
2022-10-09T00:29:38.849Z,25.23
2022-10-09T00:32:08.429Z,25.24
2022-10-09T00:34:41.868Z,25.25
2022-10-09T00:37:16.804Z,25.27
2022-10-09T00:39:45.659Z,25.27
2022-10-09T00:45:04.067Z,25.28
2022-10-09T00:47:47.876Z,25.29
2022-10-09T00:50:29.397Z,25.28
2022-10-09T00:53:04.704Z,25.28
2022-10-09T00:55:39.634Z,25.28
2022-10-09T00:58:11.549Z,25.27
2022-10-09T01:00:41.730Z,25.27
2022-10-09T01:03:14.228Z,25.26
2022-10-09T01:06:15.563Z,25.25
2022-10-09T01:09:15.686Z,25.24
2022-10-09T01:12:20.466Z,25.22
2022-10-09T01:15:18.002Z,25.20
2022-10-09T01:18:24.829Z,25.20
2022-10-09T01:21:04.126Z,25.19
2022-10-09T01:23:56.475Z,25.18
2022-10-09T01:26:43.600Z,25.18
2022-10-09T01:29:12.792Z,25.18
2022-10-09T01:31:44.440Z,25.17
2022-10-09T01:34:14.660Z,25.16
2022-10-09T01:36:45.822Z,25.15
2022-10-09T01:39:24.064Z,25.15
2022-10-09T01:41:56.645Z,25.15
2022-10-09T01:44:31.106Z,25.13
2022-10-09T01:46:59.414Z,25.12
2022-10-09T01:49:36.061Z,25.11
2022-10-09T01:52:41.103Z,25.10
2022-10-09T01:55:30.424Z,25.09
2022-10-09T01:58:02.289Z,25.09
2022-10-09T02:00:33.787Z,25.09
2022-10-09T02:03:21.431Z,25.09
2022-10-09T02:05:52.974Z,25.09
2022-10-09T02:08:22.630Z,25.09
2022-10-09T02:10:54.264Z,25.09
2022-10-09T02:13:22.017Z,25.08
2022-10-09T02:15:53.991Z,25.08
2022-10-09T02:18:36.238Z,25.08
2022-10-09T02:21:11.314Z,25.06
2022-10-09T02:23:41.818Z,25.06
2022-10-09T02:26:10.393Z,25.05
2022-10-09T02:28:39.116Z,25.05
2022-10-09T02:31:20.368Z,25.04
2022-10-09T02:34:01.889Z,25.03
2022-10-09T02:36:29.962Z,25.03
2022-10-09T02:38:57.384Z,25.03
2022-10-09T02:41:24.898Z,25.03
2022-10-09T02:43:52.131Z,25.03
2022-10-09T02:46:19.570Z,25.03
2022-10-09T02:48:46.853Z,25.02
2022-10-09T02:51:14.401Z,25.02
2022-10-09T02:53:41.387Z,25.02
2022-10-09T02:56:08.401Z,25.02
2022-10-09T02:58:36.578Z,25.01
2022-10-09T03:01:05.265Z,25.01
2022-10-09T03:03:32.548Z,25.01
2022-10-09T03:06:13.902Z,25.02
2022-10-09T03:08:43.909Z,25.03
2022-10-09T03:11:12.246Z,25.06
2022-10-09T03:13:40.072Z,25.08
2022-10-09T03:16:13.075Z,25.10
2022-10-09T03:18:40.757Z,25.10
2022-10-09T03:21:19.807Z,25.10
2022-10-09T03:23:47.500Z,25.12
2022-10-09T03:26:17.829Z,25.14
2022-10-09T03:28:50.148Z,25.16
2022-10-09T03:31:39.794Z,25.18
2022-10-09T03:34:06.628Z,25.20
2022-10-09T03:36:33.676Z,25.21
2022-10-09T03:39:00.580Z,25.24
2022-10-09T03:41:27.628Z,25.25
2022-10-09T03:43:54.529Z,25.26
2022-10-09T03:46:21.590Z,25.27
2022-10-09T03:48:48.569Z,25.29
2022-10-09T03:51:15.557Z,25.29
2022-10-09T03:53:42.930Z,25.31
2022-10-09T03:56:10.090Z,25.31
2022-10-09T03:58:37.023Z,25.30
2022-10-09T04:01:04.751Z,25.29
2022-10-09T04:03:31.846Z,25.27
2022-10-09T04:05:58.898Z,25.26
2022-10-09T04:08:25.946Z,25.24
2022-10-09T04:11:01.368Z,25.23
2022-10-09T04:13:28.679Z,25.21
2022-10-09T04:15:56.606Z,25.20
2022-10-09T04:18:24.587Z,25.18
2022-10-09T04:20:53.779Z,25.17
2022-10-09T04:23:23.579Z,25.15
2022-10-09T04:25:55.916Z,25.14
2022-10-09T04:28:23.835Z,25.12
2022-10-09T04:30:50.901Z,25.11
2022-10-09T04:33:18.361Z,25.11
2022-10-09T04:35:47.151Z,25.08
2022-10-09T04:38:14.394Z,25.07
2022-10-09T04:40:41.971Z,25.07
2022-10-09T04:43:09.000Z,25.06
2022-10-09T04:45:40.513Z,25.05
2022-10-09T04:48:07.505Z,25.05
2022-10-09T04:50:34.446Z,25.04
2022-10-09T04:53:01.402Z,25.03
2022-10-09T04:55:28.443Z,25.02
2022-10-09T04:57:55.317Z,25.01
2022-10-09T05:00:22.748Z,25.01
2022-10-09T05:02:49.802Z,25.01
2022-10-09T05:05:17.253Z,25.00
2022-10-09T05:07:44.408Z,24.99
2022-10-09T05:10:11.316Z,24.98
2022-10-09T05:12:38.415Z,24.98
2022-10-09T05:15:06.064Z,24.97
2022-10-09T05:17:33.207Z,24.98
2022-10-09T05:20:00.371Z,24.98
2022-10-09T05:22:27.315Z,24.97
2022-10-09T05:24:54.381Z,24.97
2022-10-09T05:27:21.412Z,24.97
2022-10-09T05:29:48.466Z,24.96
2022-10-09T05:32:15.511Z,24.96
2022-10-09T05:34:42.984Z,24.95
2022-10-09T05:37:10.017Z,24.96
2022-10-09T05:39:38.609Z,24.95
2022-10-09T05:42:05.882Z,24.95
2022-10-09T05:44:33.113Z,24.95
2022-10-09T05:47:00.166Z,24.94
2022-10-09T05:49:27.208Z,24.95
2022-10-09T05:51:56.211Z,24.94
2022-10-09T05:54:23.471Z,24.94
2022-10-09T05:56:50.717Z,24.94
2022-10-09T05:59:22.350Z,24.94
2022-10-09T06:01:51.871Z,24.95
2022-10-09T06:04:22.734Z,24.95
2022-10-09T06:06:50.872Z,24.95
2022-10-09T06:09:22.276Z,24.95
2022-10-09T06:11:51.124Z,24.95
2022-10-09T06:14:18.908Z,24.95
2022-10-09T06:16:46.283Z,24.95
2022-10-09T06:19:16.189Z,24.96
2022-10-09T06:21:44.351Z,24.96
2022-10-09T06:24:18.528Z,24.96
2022-10-09T06:26:45.996Z,24.97
2022-10-09T06:29:12.966Z,24.97
2022-10-09T06:31:40.435Z,24.98
2022-10-09T06:34:07.935Z,24.98
2022-10-09T06:36:36.285Z,24.98
2022-10-09T06:39:06.795Z,24.98
2022-10-09T06:41:34.971Z,24.98
2022-10-09T06:44:16.313Z,24.98
2022-10-09T06:46:45.716Z,24.98
2022-10-09T06:49:12.914Z,24.98
2022-10-09T06:51:40.071Z,24.98
2022-10-09T06:54:12.949Z,24.98
2022-10-09T06:56:40.486Z,24.99
2022-10-09T06:59:07.966Z,25.00
2022-10-09T07:01:35.205Z,25.02
2022-10-09T07:04:07.322Z,25.03
2022-10-09T07:06:38.948Z,25.04
2022-10-09T07:09:08.913Z,25.06
2022-10-09T07:11:38.322Z,25.07
2022-10-09T07:14:08.338Z,25.08
2022-10-09T07:16:38.227Z,25.09
2022-10-09T07:19:11.525Z,25.11
2022-10-09T07:21:43.877Z,25.14
2022-10-09T07:24:12.019Z,25.15
2022-10-09T07:26:42.712Z,25.16
2022-10-09T07:29:13.287Z,25.18
2022-10-09T07:31:40.904Z,25.18
2022-10-09T07:34:08.523Z,25.19
2022-10-09T07:36:36.443Z,25.20
2022-10-09T07:39:04.869Z,25.22
2022-10-09T07:41:31.898Z,25.23
2022-10-09T07:43:59.203Z,25.23
2022-10-09T07:46:33.061Z,25.24
2022-10-09T07:49:02.351Z,25.25
2022-10-09T07:51:31.179Z,25.26
2022-10-09T07:54:02.976Z,25.26
2022-10-09T07:56:33.565Z,25.26
2022-10-09T07:59:06.494Z,25.26
2022-10-09T08:01:35.571Z,25.25
2022-10-09T08:04:03.370Z,25.24
2022-10-09T08:06:31.320Z,25.23
2022-10-09T08:09:00.220Z,25.22
2022-10-09T08:11:29.198Z,25.19
2022-10-09T08:13:56.846Z,25.19
2022-10-09T08:16:25.445Z,25.17
2022-10-09T08:18:58.647Z,25.17
2022-10-09T08:21:28.169Z,25.14
2022-10-09T08:23:57.872Z,25.14
2022-10-09T08:26:26.858Z,25.12
2022-10-09T08:29:00.056Z,25.11
2022-10-09T08:31:28.155Z,25.10
2022-10-09T08:33:56.920Z,25.09
2022-10-09T08:36:28.060Z,25.09
2022-10-09T08:38:55.614Z,25.09
2022-10-09T08:41:41.099Z,25.09
2022-10-09T08:44:32.004Z,25.09
2022-10-09T08:47:20.357Z,25.08
2022-10-09T08:50:10.449Z,25.07
2022-10-09T08:52:49.681Z,25.07
2022-10-09T08:55:28.808Z,25.06
2022-10-09T08:58:01.288Z,25.05
2022-10-09T09:00:39.991Z,25.04
2022-10-09T09:03:27.235Z,25.04
2022-10-09T09:05:57.156Z,25.04
2022-10-09T09:08:38.267Z,25.03
2022-10-09T09:11:22.286Z,25.03
2022-10-09T09:14:10.113Z,25.02
2022-10-09T09:16:57.029Z,25.01
2022-10-09T09:19:49.101Z,25.01
2022-10-09T09:22:17.648Z,25.02
2022-10-09T09:24:52.386Z,25.02
2022-10-09T09:27:22.267Z,25.02
2022-10-09T09:29:53.139Z,25.02
2022-10-09T09:32:24.078Z,25.03
2022-10-09T09:35:00.099Z,25.04
2022-10-09T09:37:27.727Z,25.05
2022-10-09T09:40:34.788Z,25.05
2022-10-09T09:42:43.507Z,25.05
2022-10-09T09:45:21.205Z,25.05
2022-10-09T09:47:54.402Z,25.07
2022-10-09T09:50:52.951Z,25.07
2022-10-09T09:53:32.114Z,25.09
2022-10-09T09:55:59.984Z,25.09
2022-10-09T09:58:45.380Z,25.10
2022-10-09T10:01:21.581Z,25.10
2022-10-09T10:03:51.683Z,25.11
2022-10-09T10:06:44.275Z,25.11
2022-10-09T10:09:17.285Z,25.11
2022-10-09T10:11:54.779Z,25.11
2022-10-09T10:14:22.853Z,25.12
2022-10-09T10:16:52.471Z,25.12
2022-10-09T10:19:24.332Z,25.14
2022-10-09T10:22:06.839Z,25.15
2022-10-09T10:24:47.915Z,25.16
2022-10-09T10:27:30.229Z,25.16
2022-10-09T10:30:03.104Z,25.16
2022-10-09T10:32:36.016Z,25.17
2022-10-09T10:35:10.544Z,25.18
2022-10-09T10:37:50.438Z,25.18
2022-10-09T10:40:25.013Z,25.20
2022-10-09T10:42:57.434Z,25.23
2022-10-09T10:45:33.945Z,25.24
2022-10-09T10:48:03.456Z,25.26
2022-10-09T10:50:37.398Z,25.27
2022-10-09T10:53:14.616Z,25.28
2022-10-09T10:56:05.346Z,25.29
2022-10-09T10:58:51.398Z,25.30
2022-10-09T11:01:32.347Z,25.31
2022-10-09T11:04:32.819Z,25.31
2022-10-09T11:07:20.961Z,25.33
2022-10-09T11:10:00.553Z,25.35
2022-10-09T11:12:50.026Z,25.37
2022-10-09T11:15:26.286Z,25.36
2022-10-09T11:18:18.117Z,25.36
2022-10-09T11:21:28.893Z,25.35
2022-10-09T11:24:14.062Z,25.34
2022-10-09T11:27:00.961Z,25.33
2022-10-09T11:29:37.815Z,25.33
2022-10-09T11:32:14.325Z,25.33
2022-10-09T11:34:55.813Z,25.33
2022-10-09T11:37:29.046Z,25.33
2022-10-09T11:39:57.191Z,25.32
2022-10-09T11:42:26.491Z,25.33
2022-10-09T11:45:18.330Z,25.33
2022-10-09T11:47:57.560Z,25.34
2022-10-09T11:50:47.645Z,25.34
2022-10-09T11:53:22.064Z,25.34
2022-10-09T11:55:49.389Z,25.34
2022-10-09T11:58:23.066Z,25.35
2022-10-09T12:00:57.107Z,25.34
2022-10-09T12:03:34.176Z,25.34
2022-10-09T12:06:17.242Z,25.34
2022-10-09T12:09:06.988Z,25.34
2022-10-09T12:11:36.616Z,25.33
2022-10-09T12:14:09.138Z,25.33
2022-10-09T12:16:44.554Z,25.34
2022-10-09T12:19:36.182Z,25.34
2022-10-09T12:22:03.230Z,25.34
2022-10-09T12:24:52.196Z,25.35
2022-10-09T12:27:27.593Z,25.35
2022-10-09T12:30:03.838Z,25.35
2022-10-09T12:32:39.979Z,25.34
2022-10-09T12:35:38.053Z,25.34
2022-10-09T12:38:19.124Z,25.35
2022-10-09T12:40:50.683Z,25.35
2022-10-09T12:43:23.785Z,25.35
2022-10-09T12:45:53.761Z,25.35
2022-10-09T12:48:26.639Z,25.35
2022-10-09T12:50:54.846Z,25.36
2022-10-09T12:53:25.897Z,25.36
2022-10-09T12:56:00.802Z,25.36
2022-10-09T12:58:29.923Z,25.37
2022-10-09T13:01:02.563Z,25.38
2022-10-09T13:03:38.782Z,25.39
2022-10-09T13:06:12.343Z,25.39
2022-10-09T13:08:40.095Z,25.40
2022-10-09T13:11:25.235Z,25.41
2022-10-09T13:13:54.340Z,25.43
2022-10-09T13:16:22.155Z,25.44
2022-10-09T13:19:04.638Z,25.45
2022-10-09T13:21:35.316Z,25.46
2022-10-09T13:24:11.114Z,25.47
2022-10-09T13:26:41.005Z,25.47
2022-10-09T13:29:09.188Z,25.46
2022-10-09T13:31:37.254Z,25.46
2022-10-09T13:34:14.229Z,25.45
2022-10-09T13:36:41.779Z,25.45
2022-10-09T13:39:15.618Z,25.44
2022-10-09T13:41:44.489Z,25.44
2022-10-09T13:44:11.735Z,25.44
2022-10-09T13:46:39.097Z,25.44
2022-10-09T13:49:06.651Z,25.43
2022-10-09T13:51:35.265Z,25.42
2022-10-09T13:54:02.457Z,25.41
2022-10-09T13:56:29.965Z,25.41
2022-10-09T13:58:56.999Z,25.39
2022-10-09T14:01:24.220Z,25.39
2022-10-09T14:03:51.445Z,25.38
2022-10-09T14:06:19.062Z,25.37
2022-10-09T14:08:46.833Z,25.35
2022-10-09T14:11:13.985Z,25.34
2022-10-09T14:13:41.245Z,25.33
2022-10-09T14:16:08.910Z,25.33
2022-10-09T14:18:36.699Z,25.31
2022-10-09T14:21:15.810Z,25.30
2022-10-09T14:23:43.470Z,25.30
2022-10-09T14:26:13.688Z,25.30
2022-10-09T14:28:41.079Z,25.29
2022-10-09T14:31:08.424Z,25.29
2022-10-09T14:33:35.657Z,25.29
2022-10-09T14:36:13.214Z,25.29
2022-10-09T14:38:41.637Z,25.28
2022-10-09T14:41:09.502Z,25.28
2022-10-09T14:43:36.658Z,25.27
2022-10-09T14:46:12.291Z,25.28
2022-10-09T14:48:40.581Z,25.27
2022-10-09T14:51:20.756Z,25.28
2022-10-09T14:53:49.539Z,25.29
2022-10-09T14:56:21.110Z,25.29
2022-10-09T14:58:48.655Z,25.30
2022-10-09T15:01:18.865Z,25.30
2022-10-09T15:03:48.274Z,25.31
2022-10-09T15:06:24.184Z,25.31
2022-10-09T15:08:54.350Z,25.32
2022-10-09T15:11:21.549Z,25.32
2022-10-09T15:13:48.787Z,25.31
2022-10-09T15:16:17.608Z,25.33
2022-10-09T15:18:45.823Z,25.34
2022-10-09T15:21:16.914Z,25.34
2022-10-09T15:23:44.120Z,25.34
2022-10-09T15:26:11.998Z,25.34
2022-10-09T15:28:40.866Z,25.33
2022-10-09T15:31:17.353Z,25.32
2022-10-09T15:33:44.409Z,25.32
2022-10-09T15:36:11.355Z,25.31
2022-10-09T15:38:38.886Z,25.31
2022-10-09T15:41:06.162Z,25.29
2022-10-09T15:43:37.593Z,25.29
2022-10-09T15:46:08.065Z,25.28
2022-10-09T15:48:35.005Z,25.27
2022-10-09T15:51:06.549Z,25.26
2022-10-09T15:53:33.805Z,25.25
2022-10-09T15:56:06.620Z,25.23
2022-10-09T15:58:33.646Z,25.24
2022-10-09T16:01:07.116Z,25.23
2022-10-09T16:03:37.107Z,25.22
2022-10-09T16:06:07.460Z,25.21
2022-10-09T16:08:35.460Z,25.20
2022-10-09T16:11:06.411Z,25.20
2022-10-09T16:13:38.169Z,25.20
2022-10-09T16:16:10.082Z,25.20
2022-10-09T16:18:40.911Z,25.21
2022-10-09T16:21:13.062Z,25.21
2022-10-09T16:23:43.406Z,25.20
2022-10-09T16:26:14.592Z,25.20
2022-10-09T16:28:44.976Z,25.20
2022-10-09T16:31:31.643Z,25.20
2022-10-09T16:33:59.320Z,25.20
2022-10-09T16:36:31.087Z,25.19
2022-10-09T16:39:02.627Z,25.19
2022-10-09T16:41:30.271Z,25.19
2022-10-09T16:44:00.434Z,25.20
2022-10-09T16:49:03.927Z,25.21
2022-10-09T16:51:35.268Z,25.21
2022-10-09T16:54:05.385Z,25.20
2022-10-09T16:56:35.680Z,25.20
2022-10-09T16:59:06.453Z,25.21
2022-10-09T17:01:36.615Z,25.22
2022-10-09T17:04:04.955Z,25.24
2022-10-09T17:06:32.199Z,25.30
2022-10-09T17:09:00.178Z,25.32
2022-10-09T17:11:30.042Z,25.33
2022-10-09T17:13:58.169Z,25.34
2022-10-09T17:16:29.439Z,25.35
2022-10-09T17:18:57.589Z,25.36
2022-10-09T17:21:27.870Z,25.37
2022-10-09T17:24:00.160Z,25.37
2022-10-09T17:26:31.942Z,25.36
2022-10-09T17:29:01.457Z,25.36
2022-10-09T17:31:29.830Z,25.35
2022-10-09T17:34:00.356Z,25.35
2022-10-09T17:36:30.603Z,25.36
2022-10-09T17:39:00.193Z,25.35
2022-10-09T17:41:29.183Z,25.35
2022-10-09T17:44:01.556Z,25.35
2022-10-09T17:46:34.340Z,25.35
2022-10-09T17:49:01.729Z,25.36
2022-10-09T17:51:34.927Z,25.35
2022-10-09T17:54:12.209Z,25.35
2022-10-09T17:56:45.565Z,25.34
2022-10-09T17:59:14.537Z,25.33
2022-10-09T18:01:52.010Z,25.33
2022-10-09T18:04:20.890Z,25.32
2022-10-09T18:06:52.773Z,25.31
2022-10-09T18:09:20.490Z,25.30
2022-10-09T18:11:51.951Z,25.29
2022-10-09T18:14:19.829Z,25.29
2022-10-09T18:16:50.344Z,25.30
2022-10-09T18:19:26.558Z,25.30
2022-10-09T18:21:53.860Z,25.30
2022-10-09T18:24:20.802Z,25.30
2022-10-09T18:26:47.966Z,25.29
2022-10-09T18:29:15.112Z,25.29
2022-10-09T18:31:42.773Z,25.28
2022-10-09T18:34:13.375Z,25.28
2022-10-09T18:36:41.177Z,25.27
2022-10-09T18:39:13.959Z,25.25
2022-10-09T18:41:42.245Z,25.26
2022-10-09T18:44:17.636Z,25.25
2022-10-09T18:46:52.428Z,25.25
2022-10-09T18:49:24.477Z,25.25
2022-10-09T18:51:52.345Z,25.24
2022-10-09T18:54:24.466Z,25.24
2022-10-09T18:56:52.384Z,25.23
2022-10-09T18:59:21.895Z,25.23
2022-10-09T19:01:49.711Z,25.23
2022-10-09T19:04:16.686Z,25.23
2022-10-09T19:06:44.566Z,25.23
2022-10-09T19:09:14.206Z,25.22
2022-10-09T19:11:41.350Z,25.23
2022-10-09T19:14:08.594Z,25.23
2022-10-09T19:16:35.963Z,25.22
2022-10-09T19:19:03.823Z,25.22
2022-10-09T19:21:31.461Z,25.21
2022-10-09T19:24:03.651Z,25.20
2022-10-09T19:26:35.087Z,25.20
2022-10-09T19:29:02.361Z,25.20
2022-10-09T19:31:30.528Z,25.20
2022-10-09T19:34:00.145Z,25.20
2022-10-09T19:36:28.620Z,25.20
2022-10-09T19:38:56.081Z,25.19
2022-10-09T19:41:27.028Z,25.19
2022-10-09T19:43:54.190Z,25.20
2022-10-09T19:46:22.954Z,25.19
2022-10-09T19:48:52.257Z,25.20
2022-10-09T19:51:23.403Z,25.20
2022-10-09T19:53:52.606Z,25.20
2022-10-09T19:56:28.889Z,25.19
2022-10-09T19:58:57.351Z,25.20
2022-10-09T20:01:26.777Z,25.20
2022-10-09T20:03:59.538Z,25.21
2022-10-09T20:06:30.381Z,25.22
2022-10-09T20:08:58.557Z,25.22
2022-10-09T20:11:27.682Z,25.22
2022-10-09T20:13:57.078Z,25.22
2022-10-09T20:16:25.398Z,25.22
2022-10-09T20:18:55.661Z,25.23
2022-10-09T20:21:23.114Z,25.22
2022-10-09T20:23:50.777Z,25.23
2022-10-09T20:26:19.789Z,25.22
2022-10-09T20:28:47.962Z,25.22
2022-10-09T20:31:19.652Z,25.22
2022-10-09T20:33:48.397Z,25.22
2022-10-09T20:36:32.870Z,25.22
2022-10-09T20:39:03.830Z,25.21
2022-10-09T20:41:32.082Z,25.21
2022-10-09T20:44:01.180Z,25.22
2022-10-09T20:46:31.092Z,25.22
2022-10-09T20:48:58.955Z,25.22
2022-10-09T20:51:31.748Z,25.22
2022-10-09T20:54:02.887Z,25.22
2022-10-09T20:56:32.506Z,25.21
2022-10-09T20:59:02.285Z,25.21
2022-10-09T21:01:29.816Z,25.21
2022-10-09T21:03:59.916Z,25.21
2022-10-09T21:06:27.358Z,25.22
2022-10-09T21:08:55.018Z,25.23
2022-10-09T21:11:25.829Z,25.23
2022-10-09T21:13:52.802Z,25.23
2022-10-09T21:16:24.947Z,25.24
2022-10-09T21:19:01.282Z,25.23
2022-10-09T21:21:30.842Z,25.24
2022-10-09T21:24:01.180Z,25.24
2022-10-09T21:26:30.236Z,25.23
2022-10-09T21:28:59.940Z,25.23
2022-10-09T21:31:31.041Z,25.24
2022-10-09T21:34:02.289Z,25.24
2022-10-09T21:36:32.903Z,25.24
2022-10-09T21:39:00.774Z,25.25
2022-10-09T21:41:28.402Z,25.24
2022-10-09T21:43:55.562Z,25.24
2022-10-09T21:46:23.223Z,25.24
2022-10-09T21:48:51.109Z,25.24
2022-10-09T21:51:18.902Z,25.24
2022-10-09T21:53:46.342Z,25.24
2022-10-09T21:56:14.122Z,25.24
2022-10-09T21:58:46.730Z,25.23
2022-10-09T22:01:16.360Z,25.24
2022-10-09T22:03:43.540Z,25.24
2022-10-09T22:06:18.467Z,25.24
2022-10-09T22:08:46.354Z,25.23
2022-10-09T22:11:13.810Z,25.22
2022-10-09T22:13:44.662Z,25.21
2022-10-09T22:16:14.895Z,25.21
2022-10-09T22:18:42.745Z,25.21
2022-10-09T22:21:12.890Z,25.21
2022-10-09T22:23:40.519Z,25.20
2022-10-09T22:26:13.260Z,25.20
2022-10-09T22:28:41.306Z,25.19
2022-10-09T22:31:20.978Z,25.19
2022-10-09T22:33:57.583Z,25.19
2022-10-09T22:36:27.596Z,25.19
2022-10-09T22:39:00.607Z,25.19
2022-10-09T22:41:29.805Z,25.18
2022-10-09T22:43:58.587Z,25.18
2022-10-09T22:46:28.190Z,25.19
2022-10-09T22:48:55.743Z,25.20
2022-10-09T22:51:25.060Z,25.21
2022-10-09T22:53:52.679Z,25.23
2022-10-09T22:56:30.072Z,25.25
2022-10-09T22:58:59.577Z,25.27
2022-10-09T23:01:32.006Z,25.31
2022-10-09T23:04:00.695Z,25.37
2022-10-09T23:06:30.232Z,25.40
2022-10-09T23:08:58.375Z,25.42
2022-10-09T23:11:26.356Z,25.44
2022-10-09T23:13:55.878Z,25.45
2022-10-09T23:16:24.737Z,25.47
2022-10-09T23:18:52.303Z,25.48
2022-10-09T23:21:22.886Z,25.48
2022-10-09T23:23:51.168Z,25.47
2022-10-09T23:26:22.129Z,25.47
2022-10-09T23:28:55.559Z,25.47
2022-10-09T23:31:23.527Z,25.46
2022-10-09T23:33:51.289Z,25.44
2022-10-09T23:36:21.769Z,25.43
2022-10-09T23:38:50.203Z,25.42
2022-10-09T23:41:20.065Z,25.40
2022-10-09T23:43:48.099Z,25.39
2022-10-09T23:46:18.860Z,25.38
2022-10-09T23:48:47.806Z,25.36
2022-10-09T23:51:15.956Z,25.34
2022-10-09T23:53:43.480Z,25.34
2022-10-09T23:56:29.647Z,25.32
2022-10-09T23:58:58.798Z,25.31
